createdAt,value
2018-08-24T00:00:35.020Z,18.80
2018-08-24T00:01:35.585Z,18.83
2018-08-24T00:02:36.148Z,18.81
2018-08-24T00:03:36.710Z,18.75
2018-08-24T00:04:37.256Z,18.71
2018-08-24T00:05:37.811Z,18.71
2018-08-24T00:06:38.367Z,18.74
2018-08-24T00:07:38.920Z,18.81
2018-08-24T00:08:39.472Z,18.78
2018-08-24T00:09:40.021Z,18.81
2018-08-24T00:10:40.587Z,18.81
2018-08-24T00:11:41.134Z,18.69
2018-08-24T00:12:41.688Z,18.87
2018-08-24T00:13:42.241Z,18.71
2018-08-24T00:14:42.796Z,18.69
2018-08-24T00:15:43.347Z,18.73
2018-08-24T00:16:43.901Z,18.81
2018-08-24T00:17:44.447Z,18.84
2018-08-24T00:18:44.994Z,18.80
2018-08-24T00:19:45.546Z,18.80
2018-08-24T00:20:46.091Z,18.87
2018-08-24T00:21:46.645Z,18.77
2018-08-24T00:22:47.198Z,18.69
2018-08-24T00:23:47.748Z,18.74
2018-08-24T00:24:48.300Z,18.69
2018-08-24T00:25:48.851Z,18.68
2018-08-24T00:26:49.403Z,18.66
2018-08-24T00:27:49.958Z,18.69
2018-08-24T00:28:50.511Z,18.69
2018-08-24T00:29:51.062Z,18.66
2018-08-24T00:30:51.605Z,18.66
2018-08-24T00:31:52.198Z,18.63
2018-08-24T00:32:52.711Z,18.71
2018-08-24T00:33:53.258Z,18.66
2018-08-24T00:34:53.811Z,18.65
2018-08-24T00:35:54.366Z,18.50
2018-08-24T00:36:54.919Z,18.60
2018-08-24T00:37:55.467Z,18.66
2018-08-24T00:38:56.017Z,18.66
2018-08-24T00:39:56.600Z,18.55
2018-08-24T00:40:57.127Z,18.66
2018-08-24T00:41:57.679Z,18.71
2018-08-24T00:42:58.232Z,18.66
2018-08-24T00:43:58.784Z,18.56
2018-08-24T00:44:59.338Z,18.55
2018-08-24T00:45:59.884Z,18.56
2018-08-24T00:47:00.431Z,18.53
2018-08-24T00:48:00.984Z,18.53
2018-08-24T00:49:01.537Z,18.43
2018-08-24T00:50:02.094Z,18.41
2018-08-24T00:51:02.641Z,18.43
2018-08-24T00:52:03.194Z,18.47
2018-08-24T00:53:03.754Z,18.43
2018-08-24T00:54:04.305Z,18.45
2018-08-24T00:55:04.852Z,18.47
2018-08-24T00:56:05.408Z,18.50
2018-08-24T00:57:05.952Z,18.41
2018-08-24T00:58:06.507Z,18.40
2018-08-24T00:59:07.059Z,18.37
2018-08-24T01:00:07.609Z,18.32
2018-08-24T01:01:08.174Z,18.32
2018-08-24T01:02:08.714Z,18.26
2018-08-24T01:03:09.266Z,18.30
2018-08-24T01:04:09.820Z,18.30
2018-08-24T01:05:10.378Z,18.26
2018-08-24T01:06:10.928Z,18.14
2018-08-24T01:07:11.481Z,18.18
2018-08-24T01:08:12.027Z,18.16
2018-08-24T01:09:12.582Z,18.12
2018-08-24T01:10:13.135Z,18.11
2018-08-24T01:11:13.683Z,18.10
2018-08-24T01:12:14.239Z,18.07
2018-08-24T01:13:14.791Z,18.10
2018-08-24T01:14:15.335Z,17.98
2018-08-24T01:15:15.884Z,18.03
2018-08-24T01:16:16.441Z,18.04
2018-08-24T01:17:16.991Z,17.97
2018-08-24T01:18:17.544Z,17.89
2018-08-24T01:19:18.090Z,17.89
2018-08-24T01:20:18.642Z,17.83
2018-08-24T01:21:19.197Z,17.86
2018-08-24T01:22:19.748Z,17.79
2018-08-24T01:23:20.295Z,17.75
2018-08-24T01:24:20.850Z,17.82
2018-08-24T01:25:21.404Z,17.82
2018-08-24T01:26:21.962Z,17.74
2018-08-24T01:27:22.508Z,17.72
2018-08-24T01:28:23.061Z,17.70
2018-08-24T01:29:23.616Z,17.65
2018-08-24T01:30:24.161Z,17.55
2018-08-24T01:31:24.716Z,17.55
2018-08-24T01:32:25.267Z,17.60
2018-08-24T01:33:25.820Z,17.56
2018-08-24T01:34:26.366Z,17.52
2018-08-24T01:35:26.919Z,17.34
2018-08-24T01:36:27.474Z,17.39
2018-08-24T01:37:28.027Z,17.39
2018-08-24T01:38:28.579Z,17.31
2018-08-24T01:39:29.129Z,17.34
2018-08-24T01:40:29.684Z,17.37
2018-08-24T01:41:30.245Z,17.27
2018-08-24T01:42:30.802Z,17.21
2018-08-24T01:43:31.381Z,17.24
2018-08-24T01:44:31.924Z,17.29
2018-08-24T01:45:32.477Z,17.19
2018-08-24T01:46:33.031Z,17.15
2018-08-24T01:47:33.582Z,17.21
2018-08-24T01:48:34.135Z,17.16
2018-08-24T01:49:34.690Z,17.12
2018-08-24T01:50:35.247Z,17.14
2018-08-24T01:51:35.797Z,17.04
2018-08-24T01:52:36.346Z,17.00
2018-08-24T01:53:36.902Z,17.01
2018-08-24T01:54:37.453Z,17.01
2018-08-24T01:55:38.006Z,17.00
2018-08-24T01:56:38.552Z,16.97
2018-08-24T01:57:39.096Z,16.98
2018-08-24T01:58:39.649Z,16.87
2018-08-24T01:59:40.205Z,16.91
2018-08-24T02:00:40.752Z,16.83
2018-08-24T02:01:41.300Z,16.94
2018-08-24T02:02:41.856Z,16.90
2018-08-24T02:03:42.408Z,16.90
2018-08-24T02:04:42.950Z,16.90
2018-08-24T02:05:43.494Z,16.81
2018-08-24T02:06:44.041Z,16.86
2018-08-24T02:07:44.596Z,16.82
2018-08-24T02:08:45.148Z,16.78
2018-08-24T02:09:45.708Z,16.72
2018-08-24T02:10:46.245Z,16.82
2018-08-24T02:11:46.796Z,16.73
2018-08-24T02:12:47.349Z,16.71
2018-08-24T02:13:47.903Z,16.63
2018-08-24T02:14:48.452Z,16.72
2018-08-24T02:15:49.005Z,16.63
2018-08-24T02:16:49.557Z,16.60
2018-08-24T02:17:50.111Z,16.63
2018-08-24T02:18:50.658Z,16.66
2018-08-24T02:19:51.208Z,16.66
2018-08-24T02:20:51.761Z,16.66
2018-08-24T02:21:52.307Z,16.64
2018-08-24T02:22:52.859Z,16.64
2018-08-24T02:23:53.414Z,16.54
2018-08-24T02:24:53.966Z,16.64
2018-08-24T02:25:54.519Z,16.64
2018-08-24T02:26:55.073Z,16.63
2018-08-24T02:27:55.627Z,16.66
2018-08-24T02:28:56.180Z,16.58
2018-08-24T02:29:56.735Z,16.63
2018-08-24T02:30:57.288Z,16.63
2018-08-24T02:31:57.840Z,16.64
2018-08-24T02:32:58.392Z,16.60
2018-08-24T02:33:58.949Z,16.66
2018-08-24T02:34:59.503Z,16.64
2018-08-24T02:36:00.058Z,16.63
2018-08-24T02:37:00.619Z,16.49
2018-08-24T02:38:01.160Z,16.53
2018-08-24T02:39:01.705Z,16.56
2018-08-24T02:40:02.259Z,16.56
2018-08-24T02:41:02.813Z,16.50
2018-08-24T02:42:03.361Z,16.53
2018-08-24T02:43:03.914Z,16.58
2018-08-24T02:44:04.471Z,16.53
2018-08-24T02:45:05.075Z,16.64
2018-08-24T02:46:05.564Z,16.75
2018-08-24T02:47:06.120Z,16.64
2018-08-24T02:48:06.663Z,16.75
2018-08-24T02:49:07.219Z,16.71
2018-08-24T02:50:07.774Z,16.82
2018-08-24T02:51:08.327Z,16.79
2018-08-24T02:52:08.882Z,16.81
2018-08-24T02:53:09.435Z,16.90
2018-08-24T02:54:09.990Z,16.86
2018-08-24T02:55:10.549Z,16.89
2018-08-24T02:56:11.094Z,16.86
2018-08-24T02:57:11.691Z,16.87
2018-08-24T02:58:12.201Z,16.87
2018-08-24T02:59:12.753Z,16.91
2018-08-24T03:00:13.308Z,16.97
2018-08-24T03:01:13.862Z,16.96
2018-08-24T03:02:14.413Z,16.90
2018-08-24T03:03:14.967Z,16.97
2018-08-24T03:04:15.523Z,16.97
2018-08-24T03:05:16.108Z,16.90
2018-08-24T03:06:16.616Z,17.00
2018-08-24T03:07:17.169Z,17.04
2018-08-24T03:08:17.754Z,16.98
2018-08-24T03:09:18.272Z,16.94
2018-08-24T03:10:18.820Z,17.01
2018-08-24T03:11:19.372Z,17.00
2018-08-24T03:12:19.930Z,17.01
2018-08-24T03:13:20.479Z,17.06
2018-08-24T03:14:21.032Z,17.01
2018-08-24T03:15:21.585Z,17.04
2018-08-24T03:16:22.168Z,17.06
2018-08-24T03:17:22.693Z,17.11
2018-08-24T03:18:23.243Z,17.01
2018-08-24T03:19:23.794Z,17.04
2018-08-24T03:20:24.346Z,17.11
2018-08-24T03:21:24.895Z,17.08
2018-08-24T03:22:25.452Z,17.08
2018-08-24T03:23:26.002Z,17.11
2018-08-24T03:24:26.556Z,17.14
2018-08-24T03:25:27.110Z,17.15
2018-08-24T03:26:27.664Z,17.16
2018-08-24T03:27:28.216Z,17.16
2018-08-24T03:28:28.765Z,17.19
2018-08-24T03:29:29.320Z,17.15
2018-08-24T03:30:29.875Z,17.19
2018-08-24T03:31:30.429Z,17.18
2018-08-24T03:32:30.979Z,17.19
2018-08-24T03:33:31.535Z,17.18
2018-08-24T03:34:32.089Z,17.24
2018-08-24T03:35:32.640Z,17.27
2018-08-24T03:36:33.187Z,17.23
2018-08-24T03:37:33.742Z,17.19
2018-08-24T03:38:34.296Z,17.21
2018-08-24T03:39:34.847Z,17.16
2018-08-24T03:40:35.391Z,17.29
2018-08-24T03:41:35.946Z,17.24
2018-08-24T03:42:36.492Z,17.18
2018-08-24T03:43:37.045Z,17.18
2018-08-24T03:44:37.601Z,17.23
2018-08-24T03:45:38.152Z,17.18
2018-08-24T03:46:38.699Z,17.23
2018-08-24T03:47:39.256Z,17.18
2018-08-24T03:48:39.808Z,17.11
2018-08-24T03:49:40.364Z,17.12
2018-08-24T03:50:40.920Z,17.08
2018-08-24T03:51:41.469Z,17.04
2018-08-24T03:52:42.043Z,17.11
2018-08-24T03:53:42.563Z,17.01
2018-08-24T03:54:43.111Z,16.91
2018-08-24T03:55:43.665Z,16.96
2018-08-24T03:56:44.215Z,17.00
2018-08-24T03:57:44.767Z,17.08
2018-08-24T03:58:45.314Z,17.00
2018-08-24T03:59:45.867Z,16.93
2018-08-24T04:00:46.422Z,17.04
2018-08-24T04:01:46.977Z,16.98
2018-08-24T04:02:47.528Z,17.00
2018-08-24T04:03:48.082Z,16.96
2018-08-24T04:04:48.629Z,17.01
2018-08-24T04:05:49.185Z,17.05
2018-08-24T04:06:49.736Z,17.08
2018-08-24T04:07:50.290Z,17.00
2018-08-24T04:08:50.843Z,17.04
2018-08-24T04:09:51.403Z,17.00
2018-08-24T04:10:51.952Z,17.00
2018-08-24T04:11:52.503Z,16.97
2018-08-24T04:12:53.067Z,17.00
2018-08-24T04:13:53.625Z,17.08
2018-08-24T04:14:54.160Z,17.09
2018-08-24T04:15:54.712Z,17.08
2018-08-24T04:16:55.271Z,17.04
2018-08-24T04:17:55.823Z,17.12
2018-08-24T04:18:56.395Z,17.14
2018-08-24T04:19:56.935Z,17.04
2018-08-24T04:20:57.493Z,17.06
2018-08-24T04:21:58.049Z,17.04
2018-08-24T04:22:58.595Z,17.06
2018-08-24T04:23:59.145Z,17.06
2018-08-24T04:24:59.700Z,17.12
2018-08-24T04:26:00.296Z,17.16
2018-08-24T04:27:00.803Z,17.14
2018-08-24T04:28:01.359Z,17.23
2018-08-24T04:29:01.903Z,17.16
2018-08-24T04:30:02.457Z,17.21
2018-08-24T04:31:03.011Z,17.18
2018-08-24T04:32:03.566Z,17.21
2018-08-24T04:33:04.121Z,17.29
2018-08-24T04:34:04.670Z,17.37
2018-08-24T04:35:05.304Z,17.24
2018-08-24T04:36:05.775Z,17.26
2018-08-24T04:37:06.331Z,17.27
2018-08-24T04:38:06.891Z,17.24
2018-08-24T04:39:07.443Z,17.24
2018-08-24T04:40:08.003Z,17.16
2018-08-24T04:41:08.557Z,17.19
2018-08-24T04:42:09.112Z,17.34
2018-08-24T04:43:09.666Z,17.34
2018-08-24T04:44:10.218Z,17.23
2018-08-24T04:45:10.774Z,17.27
2018-08-24T04:46:11.324Z,17.26
2018-08-24T04:47:11.881Z,17.34
2018-08-24T04:48:12.440Z,17.33
2018-08-24T04:49:12.997Z,17.37
2018-08-24T04:50:13.552Z,17.37
2018-08-24T04:51:14.113Z,17.33
2018-08-24T04:52:14.661Z,17.36
2018-08-24T04:53:15.218Z,17.39
2018-08-24T04:54:15.777Z,17.41
2018-08-24T04:55:16.335Z,17.31
2018-08-24T04:56:16.891Z,17.41
2018-08-24T04:57:17.448Z,17.37
2018-08-24T04:58:18.097Z,17.29
2018-08-24T04:59:18.555Z,17.19
2018-08-24T05:00:19.110Z,17.39
2018-08-24T05:01:19.668Z,17.30
2018-08-24T05:02:20.227Z,17.29
2018-08-24T05:03:20.789Z,17.24
2018-08-24T05:04:21.347Z,17.26
2018-08-24T05:05:21.903Z,17.24
2018-08-24T05:06:22.470Z,17.34
2018-08-24T05:07:23.027Z,17.30
2018-08-24T05:08:23.586Z,17.27
2018-08-24T05:09:24.150Z,17.36
2018-08-24T05:10:24.706Z,17.44
2018-08-24T05:11:25.261Z,17.34
2018-08-24T05:12:25.816Z,17.36
2018-08-24T05:13:26.371Z,17.31
2018-08-24T05:14:26.930Z,17.42
2018-08-24T05:15:27.491Z,17.45
2018-08-24T05:16:28.046Z,17.54
2018-08-24T05:17:28.638Z,17.45
2018-08-24T05:18:29.182Z,17.33
2018-08-24T05:19:29.740Z,17.56
2018-08-24T05:20:30.332Z,17.46
2018-08-24T05:21:30.919Z,17.45
2018-08-24T05:22:31.429Z,17.52
2018-08-24T05:23:31.981Z,17.48
2018-08-24T05:24:32.533Z,17.46
2018-08-24T05:25:33.093Z,17.46
2018-08-24T05:26:33.648Z,17.49
2018-08-24T05:27:34.197Z,17.51
2018-08-24T05:28:34.747Z,17.49
2018-08-24T05:29:35.305Z,17.49
2018-08-24T05:30:35.853Z,17.42
2018-08-24T05:31:36.422Z,17.48
2018-08-24T05:32:37.018Z,17.37
2018-08-24T05:33:37.550Z,17.46
2018-08-24T05:34:38.114Z,17.51
2018-08-24T05:35:38.710Z,17.49
2018-08-24T05:36:39.250Z,17.51
2018-08-24T05:37:39.814Z,17.45
2018-08-24T05:38:40.375Z,17.56
2018-08-24T05:39:40.937Z,17.59
2018-08-24T05:40:41.500Z,17.54
2018-08-24T05:41:42.047Z,17.56
2018-08-24T05:42:42.606Z,17.64
2018-08-24T05:43:43.154Z,17.60
2018-08-24T05:44:43.705Z,17.60
2018-08-24T05:45:44.272Z,17.55
2018-08-24T05:46:44.821Z,17.56
2018-08-24T05:47:45.381Z,17.55
2018-08-24T05:48:45.965Z,17.56
2018-08-24T05:49:46.501Z,17.59
2018-08-24T05:50:47.067Z,17.54
2018-08-24T05:51:47.627Z,17.52
2018-08-24T05:52:48.176Z,17.51
2018-08-24T05:53:48.726Z,17.59
2018-08-24T05:54:49.290Z,17.54
2018-08-24T05:55:49.911Z,17.59
2018-08-24T05:56:50.412Z,17.71
2018-08-24T05:57:50.964Z,17.74
2018-08-24T05:58:51.523Z,17.72
2018-08-24T05:59:52.079Z,17.75
2018-08-24T06:00:52.637Z,17.71
2018-08-24T06:01:53.200Z,17.70
2018-08-24T06:02:53.759Z,17.75
2018-08-24T06:03:54.310Z,17.82
2018-08-24T06:04:54.877Z,17.75
2018-08-24T06:05:55.435Z,17.74
2018-08-24T06:06:55.986Z,17.72
2018-08-24T06:07:56.545Z,17.74
2018-08-24T06:08:57.108Z,17.82
2018-08-24T06:09:57.666Z,17.75
2018-08-24T06:10:58.220Z,17.72
2018-08-24T06:11:58.773Z,17.87
2018-08-24T06:12:59.326Z,17.82
2018-08-24T06:13:59.890Z,17.86
2018-08-24T06:15:00.459Z,17.83
2018-08-24T06:16:01.099Z,17.85
2018-08-24T06:17:01.573Z,17.79
2018-08-24T06:18:02.168Z,17.82
2018-08-24T06:19:02.691Z,17.75
2018-08-24T06:20:03.248Z,17.74
2018-08-24T06:21:03.805Z,17.79
2018-08-24T06:22:04.365Z,17.79
2018-08-24T06:23:04.919Z,17.71
2018-08-24T06:24:05.481Z,17.55
2018-08-24T06:25:06.040Z,17.63
2018-08-24T06:26:06.600Z,17.60
2018-08-24T06:27:07.160Z,17.60
2018-08-24T06:28:07.717Z,17.68
2018-08-24T06:29:08.272Z,17.60
2018-08-24T06:30:08.834Z,17.71
2018-08-24T06:31:09.394Z,17.68
2018-08-24T06:32:09.960Z,17.70
2018-08-24T06:33:10.515Z,17.67
2018-08-24T06:34:11.077Z,17.72
2018-08-24T06:35:11.636Z,17.74
2018-08-24T06:36:12.201Z,17.71
2018-08-24T06:37:12.757Z,17.79
2018-08-24T06:38:13.320Z,17.72
2018-08-24T06:39:13.887Z,17.87
2018-08-24T06:40:14.449Z,17.70
2018-08-24T06:41:15.008Z,17.72
2018-08-24T06:42:15.568Z,17.70
2018-08-24T06:43:16.129Z,17.74
2018-08-24T06:44:16.687Z,17.74
2018-08-24T06:45:17.248Z,17.86
2018-08-24T06:46:17.798Z,17.83
2018-08-24T06:47:18.424Z,17.83
2018-08-24T06:48:18.912Z,17.77
2018-08-24T06:49:19.471Z,17.83
2018-08-24T06:50:20.025Z,17.75
2018-08-24T06:51:20.580Z,17.74
2018-08-24T06:52:21.139Z,17.75
2018-08-24T06:53:21.811Z,17.70
2018-08-24T06:54:22.253Z,17.77
2018-08-24T06:55:22.816Z,17.82
2018-08-24T06:56:23.380Z,17.68
2018-08-24T06:57:23.933Z,17.71
2018-08-24T06:58:24.523Z,17.77
2018-08-24T06:59:25.060Z,17.72
2018-08-24T07:00:25.613Z,17.68
2018-08-24T07:01:26.175Z,17.67
2018-08-24T07:02:26.733Z,17.60
2018-08-24T07:03:27.285Z,17.64
2018-08-24T07:04:27.838Z,17.64
2018-08-24T07:05:28.392Z,17.51
2018-08-24T07:06:28.945Z,17.48
2018-08-24T07:07:29.501Z,17.63
2018-08-24T07:08:30.063Z,17.55
2018-08-24T07:09:30.617Z,17.63
2018-08-24T07:10:31.216Z,17.48
2018-08-24T07:11:31.743Z,17.51
2018-08-24T07:12:32.302Z,17.51
2018-08-24T07:13:32.863Z,17.45
2018-08-24T07:14:33.421Z,17.51
2018-08-24T07:15:33.980Z,17.44
2018-08-24T07:16:34.545Z,17.39
2018-08-24T07:17:35.095Z,17.44
2018-08-24T07:18:35.649Z,17.49
2018-08-24T07:19:36.213Z,17.54
2018-08-24T07:20:36.769Z,17.52
2018-08-24T07:21:37.329Z,17.41
2018-08-24T07:22:37.890Z,17.42
2018-08-24T07:23:38.449Z,17.51
2018-08-24T07:24:39.013Z,17.46
2018-08-24T07:25:39.571Z,17.39
2018-08-24T07:26:40.125Z,17.45
2018-08-24T07:27:40.682Z,17.39
2018-08-24T07:28:41.233Z,17.49
2018-08-24T07:29:41.794Z,17.49
2018-08-24T07:30:42.353Z,17.46
2018-08-24T07:31:42.917Z,17.45
2018-08-24T07:32:43.477Z,17.42
2018-08-24T07:33:44.051Z,17.39
2018-08-24T07:34:44.601Z,17.39
2018-08-24T07:35:45.166Z,17.34
2018-08-24T07:36:45.720Z,17.37
2018-08-24T07:37:46.280Z,17.39
2018-08-24T07:38:46.841Z,17.46
2018-08-24T07:39:47.400Z,17.37
2018-08-24T07:40:47.966Z,17.52
2018-08-24T07:41:48.537Z,17.56
2018-08-24T07:42:49.083Z,17.63
2018-08-24T07:43:49.641Z,17.46
2018-08-24T07:44:50.203Z,17.48
2018-08-24T07:45:50.773Z,17.59
2018-08-24T07:46:51.335Z,17.56
2018-08-24T07:47:51.886Z,17.77
2018-08-24T07:48:52.452Z,17.77
2018-08-24T07:49:53.012Z,17.72
2018-08-24T07:50:53.646Z,17.72
2018-08-24T07:51:54.140Z,17.72
2018-08-24T07:52:54.702Z,17.75
2018-08-24T07:53:55.257Z,17.70
2018-08-24T07:54:55.810Z,17.77
2018-08-24T07:55:56.367Z,17.60
2018-08-24T07:56:56.970Z,17.79
2018-08-24T07:57:57.494Z,17.64
2018-08-24T07:58:58.048Z,17.64
2018-08-24T07:59:58.607Z,17.59
2018-08-24T08:00:59.173Z,17.60
2018-08-24T08:01:59.729Z,17.60
2018-08-24T08:03:00.289Z,17.55
2018-08-24T08:04:00.847Z,17.65
2018-08-24T08:05:01.407Z,17.55
2018-08-24T08:06:01.967Z,17.60
2018-08-24T08:07:02.531Z,17.54
2018-08-24T08:08:03.085Z,17.45
2018-08-24T08:09:03.641Z,17.48
2018-08-24T08:10:04.201Z,17.41
2018-08-24T08:11:04.751Z,17.39
2018-08-24T08:12:05.311Z,17.42
2018-08-24T08:13:05.863Z,17.39
2018-08-24T08:14:06.422Z,17.41
2018-08-24T08:15:06.984Z,17.42
2018-08-24T08:16:07.549Z,17.51
2018-08-24T08:17:08.105Z,17.63
2018-08-24T08:18:08.703Z,17.72
2018-08-24T08:19:09.213Z,17.70
2018-08-24T08:20:09.776Z,17.72
2018-08-24T08:21:10.337Z,18.11
2018-08-24T08:22:10.900Z,18.35
2018-08-24T08:23:11.461Z,18.84
2018-08-24T08:24:12.023Z,18.93
2018-08-24T08:25:12.579Z,19.24
2018-08-24T08:26:13.141Z,19.31
2018-08-24T08:27:13.705Z,19.48
2018-08-24T08:28:14.259Z,19.44
2018-08-24T08:29:14.815Z,19.43
2018-08-24T08:30:15.378Z,19.40
2018-08-24T08:31:15.941Z,19.39
2018-08-24T08:32:16.499Z,19.30
2018-08-24T08:33:17.062Z,19.40
2018-08-24T08:34:17.619Z,19.56
2018-08-24T08:35:18.181Z,19.74
2018-08-24T08:36:18.741Z,20.11
2018-08-24T08:37:19.306Z,20.84
2018-08-24T08:38:19.885Z,21.24
2018-08-24T08:39:20.439Z,21.47
2018-08-24T08:40:21.007Z,21.61
2018-08-24T08:41:21.576Z,21.40
2018-08-24T08:42:22.134Z,21.14
2018-08-24T08:43:22.701Z,20.84
2018-08-24T08:44:23.267Z,20.78
2018-08-24T08:45:23.934Z,20.57
2018-08-24T08:46:24.390Z,20.34
2018-08-24T08:47:24.955Z,20.32
2018-08-24T08:48:25.521Z,20.32
2018-08-24T08:49:26.081Z,20.50
2018-08-24T08:50:26.647Z,20.59
2018-08-24T08:51:27.206Z,20.69
2018-08-24T08:52:27.864Z,20.81
2018-08-24T08:53:28.439Z,20.82
2018-08-24T08:54:28.996Z,20.98
2018-08-24T08:55:29.558Z,21.64
2018-08-24T08:56:30.132Z,21.96
2018-08-24T08:57:30.697Z,21.85
2018-08-24T08:58:31.261Z,21.79
2018-08-24T08:59:31.834Z,21.64
2018-08-24T09:00:32.395Z,21.43
2018-08-24T09:01:32.959Z,21.25
2018-08-24T09:02:33.525Z,21.15
2018-08-24T09:03:34.091Z,21.07
2018-08-24T09:04:34.658Z,20.92
2018-08-24T09:05:35.224Z,21.15
2018-08-24T09:06:35.791Z,21.40
2018-08-24T09:07:36.355Z,21.40
2018-08-24T09:08:36.920Z,21.47
2018-08-24T09:09:37.476Z,21.37
2018-08-24T09:10:38.054Z,21.06
2018-08-24T09:11:38.612Z,21.00
2018-08-24T09:12:39.177Z,20.98
2018-08-24T09:13:39.753Z,21.00
2018-08-24T09:14:40.303Z,20.95
2018-08-24T09:15:40.865Z,20.98
2018-08-24T09:16:41.436Z,20.99
2018-08-24T09:17:42.002Z,20.98
2018-08-24T09:18:42.564Z,20.78
2018-08-24T09:19:43.131Z,20.87
2018-08-24T09:20:43.697Z,20.82
2018-08-24T09:21:44.254Z,20.77
2018-08-24T09:22:44.819Z,20.99
2018-08-24T09:23:45.398Z,20.78
2018-08-24T09:24:45.956Z,20.99
2018-08-24T09:25:46.545Z,21.30
2018-08-24T09:26:47.078Z,21.30
2018-08-24T09:27:47.640Z,21.02
2018-08-24T09:28:48.209Z,20.88
2018-08-24T09:29:48.769Z,20.73
2018-08-24T09:30:49.334Z,20.55
2018-08-24T09:31:49.890Z,20.50
2018-08-24T09:32:50.490Z,20.34
2018-08-24T09:33:51.018Z,20.28
2018-08-24T09:34:51.578Z,20.14
2018-08-24T09:35:52.194Z,20.21
2018-08-24T09:36:52.762Z,20.28
2018-08-24T09:37:53.365Z,20.10
2018-08-24T09:38:53.895Z,20.13
2018-08-24T09:39:54.455Z,20.60
2018-08-24T09:40:55.013Z,20.67
2018-08-24T09:41:55.577Z,20.52
2018-08-24T09:42:56.156Z,20.81
2018-08-24T09:43:56.703Z,21.36
2018-08-24T09:44:57.272Z,21.89
2018-08-24T09:45:57.840Z,22.26
2018-08-24T09:46:58.406Z,22.54
2018-08-24T09:47:58.973Z,22.40
2018-08-24T09:48:59.579Z,22.03
2018-08-24T09:50:00.105Z,21.89
2018-08-24T09:51:00.671Z,21.89
2018-08-24T09:52:01.237Z,22.05
2018-08-24T09:53:01.796Z,21.95
2018-08-24T09:54:02.362Z,22.38
2018-08-24T09:55:02.930Z,22.63
2018-08-24T09:56:03.492Z,22.94
2018-08-24T09:57:04.059Z,23.34
2018-08-24T09:58:04.630Z,23.39
2018-08-24T09:59:05.199Z,23.49
2018-08-24T10:00:05.771Z,23.69
2018-08-24T10:01:06.331Z,23.81
2018-08-24T10:02:06.904Z,23.90
2018-08-24T10:03:07.470Z,24.28
2018-08-24T10:04:08.044Z,24.26
2018-08-24T10:05:08.603Z,23.87
2018-08-24T10:06:09.204Z,23.61
2018-08-24T10:07:09.734Z,23.50
2018-08-24T10:08:10.298Z,23.23
2018-08-24T10:09:10.864Z,22.62
2018-08-24T10:10:11.436Z,22.60
2018-08-24T10:11:11.997Z,22.50
2018-08-24T10:12:12.564Z,22.69
2018-08-24T10:13:13.177Z,22.54
2018-08-24T10:14:13.699Z,22.72
2018-08-24T10:15:14.271Z,22.65
2018-08-24T10:16:14.835Z,22.54
2018-08-24T10:17:15.404Z,22.50
2018-08-24T10:18:15.972Z,22.31
2018-08-24T10:19:16.531Z,22.29
2018-08-24T10:20:17.100Z,21.91
2018-08-24T10:21:17.666Z,21.99
2018-08-24T10:22:18.228Z,21.49
2018-08-24T10:23:18.795Z,21.91
2018-08-24T10:24:19.357Z,22.28
2018-08-24T10:25:19.925Z,22.44
2018-08-24T10:26:20.497Z,22.72
2018-08-24T10:27:21.065Z,23.06
2018-08-24T10:28:21.637Z,23.25
2018-08-24T10:29:22.239Z,23.12
2018-08-24T10:30:22.769Z,23.18
2018-08-24T10:31:23.339Z,23.20
2018-08-24T10:32:23.907Z,23.40
2018-08-24T10:33:24.478Z,23.27
2018-08-24T10:34:25.051Z,23.43
2018-08-24T10:35:25.618Z,23.68
2018-08-24T10:36:26.188Z,24.02
2018-08-24T10:37:26.760Z,24.06
2018-08-24T10:38:27.332Z,24.16
2018-08-24T10:39:27.899Z,24.45
2018-08-24T10:40:28.462Z,24.27
2018-08-24T10:41:29.033Z,24.21
2018-08-24T10:42:29.604Z,24.33
2018-08-24T10:43:30.175Z,24.42
2018-08-24T10:44:30.737Z,24.31
2018-08-24T10:45:31.308Z,24.51
2018-08-24T10:46:31.878Z,24.73
2018-08-24T10:47:32.461Z,24.81
2018-08-24T10:48:33.020Z,25.02
2018-08-24T10:49:33.694Z,24.81
2018-08-24T10:50:34.166Z,24.99
2018-08-24T10:51:34.729Z,25.18
2018-08-24T10:52:35.299Z,25.25
2018-08-24T10:53:35.869Z,25.26
2018-08-24T10:54:36.444Z,25.53
2018-08-24T10:55:37.062Z,25.83
2018-08-24T10:56:37.575Z,25.80
2018-08-24T10:57:38.149Z,25.98
2018-08-24T10:58:38.726Z,25.95
2018-08-24T10:59:39.292Z,25.93
2018-08-24T11:00:39.868Z,26.09
2018-08-24T11:01:40.436Z,25.87
2018-08-24T11:02:41.008Z,25.44
2018-08-24T11:03:41.629Z,25.72
2018-08-24T11:04:42.155Z,25.90
2018-08-24T11:05:42.724Z,25.76
2018-08-24T11:06:43.295Z,25.93
2018-08-24T11:07:43.927Z,26.05
2018-08-24T11:08:44.434Z,26.31
2018-08-24T11:09:44.998Z,26.24
2018-08-24T11:10:45.561Z,26.26
2018-08-24T11:11:46.133Z,26.39
2018-08-24T11:12:46.698Z,26.22
2018-08-24T11:13:47.268Z,26.05
2018-08-24T11:14:47.843Z,26.00
2018-08-24T11:15:48.414Z,26.41
2018-08-24T11:16:49.003Z,26.50
2018-08-24T11:17:49.560Z,26.26
2018-08-24T11:18:50.123Z,26.44
2018-08-24T11:19:50.685Z,26.48
2018-08-24T11:20:51.258Z,26.96
2018-08-24T11:21:51.830Z,26.83
2018-08-24T11:22:52.462Z,26.91
2018-08-24T11:23:52.966Z,26.88
2018-08-24T11:24:53.532Z,26.91
2018-08-24T11:25:54.105Z,27.10
2018-08-24T11:26:54.816Z,27.35
2018-08-24T11:27:55.240Z,27.33
2018-08-24T11:28:55.810Z,27.42
2018-08-24T11:29:56.381Z,26.85
2018-08-24T11:30:56.957Z,26.09
2018-08-24T11:31:57.524Z,26.03
2018-08-24T11:32:58.096Z,26.31
2018-08-24T11:33:58.711Z,26.48
2018-08-24T11:34:59.236Z,26.40
2018-08-24T11:35:59.890Z,26.37
2018-08-24T11:37:00.380Z,26.58
2018-08-24T11:38:00.952Z,26.73
2018-08-24T11:39:01.523Z,27.15
2018-08-24T11:40:02.094Z,27.54
2018-08-24T11:41:02.664Z,27.67
2018-08-24T11:42:03.253Z,27.45
2018-08-24T11:43:03.802Z,26.83
2018-08-24T11:44:04.366Z,26.74
2018-08-24T11:45:04.937Z,26.65
2018-08-24T11:46:05.511Z,26.78
2018-08-24T11:47:06.084Z,26.74
2018-08-24T11:48:06.657Z,26.74
2018-08-24T11:49:07.227Z,26.71
2018-08-24T11:50:07.801Z,26.84
2018-08-24T11:51:08.373Z,26.84
2018-08-24T11:52:08.943Z,27.00
2018-08-24T11:53:09.508Z,27.21
2018-08-24T11:54:10.151Z,27.47
2018-08-24T11:55:10.638Z,27.43
2018-08-24T11:56:11.204Z,27.86
2018-08-24T11:57:11.773Z,28.13
2018-08-24T11:58:12.348Z,28.26
2018-08-24T11:59:12.909Z,28.25
2018-08-24T12:00:13.481Z,27.99
2018-08-24T12:01:14.052Z,27.78
2018-08-24T12:02:14.628Z,27.89
2018-08-24T12:03:15.194Z,28.10
2018-08-24T12:04:15.766Z,28.05
2018-08-24T12:05:16.337Z,27.98
2018-08-24T12:06:16.913Z,27.68
2018-08-24T12:07:17.505Z,27.62
2018-08-24T12:08:18.107Z,27.89
2018-08-24T12:09:18.623Z,28.10
2018-08-24T12:10:19.195Z,27.96
2018-08-24T12:11:19.765Z,27.62
2018-08-24T12:12:20.334Z,27.67
2018-08-24T12:13:20.902Z,27.37
2018-08-24T12:14:21.519Z,27.68
2018-08-24T12:15:22.043Z,27.98
2018-08-24T12:16:22.607Z,28.00
2018-08-24T12:17:23.186Z,28.18
2018-08-24T12:18:23.786Z,28.11
2018-08-24T12:19:24.325Z,28.04
2018-08-24T12:20:24.890Z,27.86
2018-08-24T12:21:25.496Z,27.99
2018-08-24T12:22:26.024Z,27.77
2018-08-24T12:23:26.595Z,27.42
2018-08-24T12:24:27.203Z,26.95
2018-08-24T12:25:27.740Z,27.06
2018-08-24T12:26:28.308Z,27.17
2018-08-24T12:27:28.879Z,27.50
2018-08-24T12:28:29.450Z,27.81
2018-08-24T12:29:30.016Z,28.11
2018-08-24T12:30:30.587Z,28.07
2018-08-24T12:31:31.151Z,28.29
2018-08-24T12:32:31.726Z,28.55
2018-08-24T12:33:32.297Z,28.55
2018-08-24T12:34:32.872Z,28.92
2018-08-24T12:35:33.442Z,29.22
2018-08-24T12:36:34.030Z,29.44
2018-08-24T12:37:34.588Z,29.26
2018-08-24T12:38:35.153Z,29.38
2018-08-24T12:39:35.723Z,29.26
2018-08-24T12:40:36.296Z,29.25
2018-08-24T12:41:36.862Z,29.35
2018-08-24T12:42:37.437Z,29.50
2018-08-24T12:43:38.078Z,29.17
2018-08-24T12:44:38.569Z,29.32
2018-08-24T12:45:39.137Z,29.20
2018-08-24T12:46:39.716Z,29.34
2018-08-24T12:47:40.288Z,29.41
2018-08-24T12:48:41.070Z,29.30
2018-08-24T12:49:41.637Z,29.47
2018-08-24T12:50:42.210Z,29.57
2018-08-24T12:51:42.785Z,29.64
2018-08-24T12:52:43.364Z,29.79
2018-08-24T12:53:43.930Z,29.96
2018-08-24T12:54:44.503Z,30.00
2018-08-24T12:55:45.075Z,29.41
2018-08-24T12:56:45.639Z,29.17
2018-08-24T12:57:46.202Z,28.92
2018-08-24T12:58:46.775Z,28.23
2018-08-24T12:59:47.339Z,27.98